Time;durP1;ratioP1;P1;durP2;ratioP2;P2;SDS_P1;SDS_P2;PMS_P1;PMS_P2;Temp;Humidity;BMP_temperature;BMP_pressure;BME280_temperature;BME280_humidity;BME280_pressure;Samples;Min_cycle;Max_cycle;Signal;HPM_P1;HPM_P2
2021/12/21 06:35:51;;;;;;;6.72;2.97;;;;;;;-2.71;64.55;101255.41;6668192;26;20052;-88
2021/12/21 06:54:14;;;;;;;6.28;2.67;;;;;;;-2.69;66.80;101281.37;6647117;26;20071;-89
2021/12/21 06:57:17;;;;;;;6.53;2.28;;;;;;;-2.72;67.53;101277.87;6639223;26;33471;-87
2021/12/21 07:00:20;;;;;;;6.32;2.78;;;;;;;-2.74;67.72;101279.59;6650699;26;35514;-89
2021/12/21 07:03:23;;;;;;;5.75;3.10;;;;;;;-2.76;68.13;101273.47;6653871;26;33974;-88
2021/12/21 07:06:27;;;;;;;5.82;2.90;;;;;;;-2.81;68.53;101290.72;6647518;26;35248;-90
2021/12/21 07:09:40;;;;;;;9.82;2.97;;;;;;;-2.80;68.69;101289.84;6637924;26;34899;-87
2021/12/21 07:19:09;;;;;;;10.95;2.60;;;;;;;-2.78;69.01;101288.16;6650972;26;34158;-88
2021/12/21 07:22:12;;;;;;;6.82;2.85;;;;;;;-2.65;68.24;101289.28;6654856;26;35390;-90
2021/12/21 07:25:15;;;;;;;7.22;2.92;;;;;;;-2.66;68.13;101284.94;6647783;26;35333;-90
2021/12/21 07:28:19;;;;;;;9.63;2.65;;;;;;;-2.66;68.19;101289.25;6638054;26;34383;-90
2021/12/21 08:20:57;;;;;;;6.75;2.60;;;;;;;-2.09;67.14;101308.50;6609495;26;20333;-88
2021/12/21 08:24:00;;;;;;;4.07;2.70;;;;;;;-1.98;66.48;101310.41;6617218;27;33882;-88
2021/12/21 08:27:04;;;;;;;4.65;3.05;;;;;;;-1.91;65.98;101314.87;6624360;27;34357;-89
2021/12/21 08:30:07;;;;;;;11.40;3.65;;;;;;;-1.82;65.89;101315.00;6622297;26;34704;-89
2021/12/21 08:33:12;;;;;;;17.15;3.95;;;;;;;-1.84;66.55;101321.03;6618354;27;34330;-88
2021/12/21 08:36:15;;;;;;;4.20;3.40;;;;;;;-1.75;66.66;101323.81;6613981;26;34684;-89
2021/12/21 08:39:18;;;;;;;7.45;3.62;;;;;;;-1.79;67.40;101317.69;6612952;26;35225;-90
2021/12/21 08:42:23;;;;;;;6.05;4.03;;;;;;;-1.73;67.59;101323.81;6614619;27;33891;-90
2021/12/21 08:45:26;;;;;;;6.40;3.30;;;;;;;-1.76;67.84;101327.28;6592741;27;33571;-87
2021/12/21 08:48:31;;;;;;;6.10;3.67;;;;;;;-1.67;67.69;101334.31;6611128;27;33903;-89
2021/12/21 08:51:35;;;;;;;6.87;2.95;;;;;;;-1.58;68.05;101342.28;6608233;26;34050;-88
2021/12/21 08:54:38;;;;;;;5.87;3.12;;;;;;;-1.49;68.07;101332.00;6612388;27;34671;-89
2021/12/21 09:12:19;;;;;;;6.10;3.58;;;;;;;-1.27;68.44;101347.97;6615321;27;34434;-88
2021/12/21 09:15:23;;;;;;;6.50;3.37;;;;;;;-1.20;68.76;101348.06;6614328;26;34015;-89
2021/12/21 09:18:27;;;;;;;7.22;3.95;;;;;;;-1.06;68.06;101343.06;6626151;26;34376;-89
2021/12/21 09:21:30;;;;;;;5.72;3.70;;;;;;;-1.13;68.56;101348.19;6621567;26;33821;-88
2021/12/21 09:28:11;;;;;;;9.32;3.75;;;;;;;-0.96;68.68;101340.59;6613085;26;20053;-88
2021/12/21 09:31:14;;;;;;;8.02;3.67;;;;;;;-0.72;67.54;101346.09;6608233;27;34107;-91
2021/12/21 09:34:16;;;;;;;7.28;3.90;;;;;;;1.80;60.84;101337.50;6608501;27;34735;-89
2021/12/21 09:44:49;;;;;;;20.58;8.00;;;;;;;9.33;37.29;101325.88;6619025;26;20345;-89
2021/12/21 09:47:52;;;;;;;10.50;5.20;;;;;;;10.56;34.72;101323.81;6616001;27;34984;-90
2021/12/21 09:54:46;;;;;;;8.52;4.57;;;;;;;10.14;35.79;101314.56;6623768;26;20044;-88
2021/12/21 09:57:50;;;;;;;6.75;4.30;;;;;;;11.43;33.08;101312.72;6608886;27;34341;-88
2021/12/21 10:00:52;;;;;;;5.90;4.05;;;;;;;9.59;36.51;101310.97;6608790;27;34292;-89
2021/12/21 10:03:55;;;;;;;6.78;4.47;;;;;;;9.74;36.29;101301.69;6609255;27;35063;-88
2021/12/21 10:06:59;;;;;;;7.25;4.87;;;;;;;6.75;42.85;101301.13;6609134;27;33889;-89
2021/12/21 10:10:22;;;;;;;8.32;4.75;;;;;;;7.44;42.86;101295.31;6608074;27;34057;-89
2021/12/21 10:13:29;;;;;;;5.90;4.65;;;;;;;6.10;45.50;101297.84;6612195;26;34006;-90
2021/12/21 10:16:31;;;;;;;5.78;4.60;;;;;;;4.04;51.31;101302.84;6616361;27;34141;-89
2021/12/21 10:19:42;;;;;;;8.75;4.70;;;;;;;3.83;52.98;101298.59;6616331;27;34241;-90
2021/12/21 10:22:50;;;;;;;9.40;5.20;;;;;;;4.33;52.19;101303.50;6611936;27;34185;-91
2021/12/21 10:48:18;;;;;;;10.02;5.20;;;;;;;3.37;55.94;101279.66;6611718;26;20062;-90
2021/12/21 10:51:23;;;;;;;9.82;5.50;;;;;;;3.47;55.38;101279.62;6611409;27;33943;-91
2021/12/21 10:58:17;;;;;;;11.23;5.37;;;;;;;2.79;57.36;101280.75;6611600;26;20322;-91
2021/12/21 11:01:28;;;;;;;10.27;5.35;;;;;;;3.98;63.72;101274.00;6617099;26;35373;-90
2021/12/21 11:04:35;;;;;;;9.20;5.03;;;;;;;5.75;52.89;101265.00;6621099;27;33904;-89
2021/12/21 11:07:46;;;;;;;9.35;5.50;;;;;;;8.26;48.76;101258.19;6621188;27;34141;-89
2021/12/21 11:10:51;;;;;;;9.10;5.40;;;;;;;4.54;50.67;101259.50;6619872;26;34299;-89
2021/12/21 11:14:15;;;;;;;7.90;5.57;;;;;;;4.13;53.01;101249.38;6616135;26;33620;-89
2021/12/21 11:17:19;;;;;;;8.93;5.87;;;;;;;4.38;52.39;101240.41;6613677;27;33788;-88
2021/12/21 11:20:23;;;;;;;8.65;5.50;;;;;;;3.38;54.17;101243.81;6614615;27;33953;-89
2021/12/21 11:23:26;;;;;;;7.82;5.40;;;;;;;2.95;56.19;101239.63;6619920;26;35423;-90
2021/12/21 11:26:31;;;;;;;9.48;5.95;;;;;;;2.66;57.07;101244.09;6612754;26;34973;-90
2021/12/21 11:29:36;;;;;;;8.00;5.50;;;;;;;2.60;58.34;101236.25;6610978;27;33996;-91
2021/12/21 11:32:44;;;;;;;9.68;5.37;;;;;;;2.17;60.09;101237.22;6608680;27;34418;-91
2021/12/21 11:39:14;;;;;;;8.70;5.00;;;;;;;5.00;55.12;101231.81;6612350;27;34240;-91
2021/12/21 11:42:26;;;;;;;10.60;5.05;;;;;;;5.39;50.27;101224.25;6610759;27;33916;-93
2021/12/21 11:45:48;;;;;;;6.82;4.87;;;;;;;3.96;52.32;101235.50;6608239;27;33956;-92
2021/12/21 11:49:11;;;;;;;10.07;5.50;;;;;;;3.20;55.84;101240.41;6608972;27;34070;-91
2021/12/21 11:52:20;;;;;;;10.05;5.68;;;;;;;2.66;57.37;101238.88;6608431;27;33889;-91
2021/12/21 11:55:27;;;;;;;8.75;5.45;;;;;;;2.76;57.89;101236.22;6608406;27;34184;-91
2021/12/21 11:58:36;;;;;;;10.05;5.85;;;;;;;2.49;58.40;101230.16;6609617;27;33896;-91
2021/12/21 12:01:46;;;;;;;8.30;5.05;;;;;;;2.29;58.68;101233.72;6611398;27;34425;-90
2021/12/21 12:04:56;;;;;;;9.27;5.65;;;;;;;1.85;59.92;101222.38;6623873;27;34285;-90
2021/12/21 12:08:12;;;;;;;9.57;5.18;;;;;;;2.15;59.70;101226.75;6618333;26;35259;-89
2021/12/21 12:11:35;;;;;;;7.95;4.62;;;;;;;2.01;59.73;101236.38;6610763;26;34074;-90
2021/12/21 12:14:39;;;;;;;6.20;4.60;;;;;;;2.09;59.20;101226.75;6610809;26;34630;-90
2021/12/21 12:17:51;;;;;;;7.78;4.30;;;;;;;1.96;59.46;101231.09;6611485;27;34120;-91
2021/12/21 12:21:12;;;;;;;8.00;4.95;;;;;;;1.84;59.21;101218.91;6609170;26;32852;-89
2021/12/21 12:24:18;;;;;;;6.77;4.63;;;;;;;1.75;59.89;101230.25;6604417;26;33848;-88
2021/12/21 12:27:23;;;;;;;8.38;5.00;;;;;;;1.72;59.90;101226.75;6614593;27;34419;-88
2021/12/21 12:30:28;;;;;;;8.93;4.85;;;;;;;1.90;59.52;101223.25;6610411;26;34610;-90
2021/12/21 12:33:42;;;;;;;6.37;4.30;;;;;;;1.75;59.84;101231.97;6620106;26;33746;-91
2021/12/21 12:37:20;;;;;;;7.68;5.28;;;;;;;1.68;59.93;101220.66;6623163;26;35372;-90
2021/12/21 12:40:47;;;;;;;6.53;4.20;;;;;;;1.69;60.41;101216.28;6618371;26;34720;-89
2021/12/21 12:43:50;;;;;;;9.43;4.78;;;;;;;1.35;59.78;101217.09;6621506;26;35706;-88
2021/12/21 12:46:58;;;;;;;7.15;4.43;;;;;;;1.35;60.38;101217.09;6610206;26;34769;-89
2021/12/21 12:50:00;;;;;;;8.88;4.65;;;;;;;1.47;60.33;101211.03;6614495;26;33799;-89
2021/12/21 12:53:06;;;;;;;8.60;4.05;;;;;;;1.17;61.07;101216.19;6608084;27;34498;-89
2021/12/21 12:56:14;;;;;;;7.43;4.28;;;;;;;1.31;60.10;101221.44;6609177;27;33748;-89
2021/12/21 12:59:17;;;;;;;7.57;4.18;;;;;;;1.30;60.91;101219.72;6608321;27;33926;-89
2021/12/21 13:02:19;;;;;;;6.15;3.90;;;;;;;1.25;61.01;101212.75;6603413;26;34175;-89
2021/12/21 13:05:34;;;;;;;7.57;4.62;;;;;;;1.19;60.86;101221.41;6608549;27;33992;-90
2021/12/21 13:08:38;;;;;;;6.57;3.95;;;;;;;1.45;60.55;101220.59;6609791;27;33954;-91
2021/12/21 13:11:42;;;;;;;8.77;3.85;;;;;;;1.17;60.37;101224.03;6608345;27;34011;-88
2021/12/21 13:14:53;;;;;;;7.37;3.80;;;;;;;1.37;59.84;101214.50;6605739;27;33930;-89
2021/12/21 13:18:04;;;;;;;7.07;3.80;;;;;;;1.38;59.35;101229.31;6607476;27;33823;-88
2021/12/21 13:21:17;;;;;;;9.50;4.50;;;;;;;1.23;60.34;101230.13;6608724;27;35030;-89
2021/12/21 13:24:23;;;;;;;9.23;4.20;;;;;;;1.11;60.86;101223.16;6608221;27;33934;-88
2021/12/21 13:27:27;;;;;;;8.15;4.50;;;;;;;0.93;61.89;101230.03;6606305;27;34391;-87
2021/12/21 13:30:30;;;;;;;7.65;4.62;;;;;;;0.89;62.49;101229.16;6606536;27;34899;-92
2021/12/21 13:41:01;;;;;;;7.78;5.10;;;;;;;0.74;63.38;101232.59;6615581;26;34069;-90
2021/12/21 13:44:08;;;;;;;8.13;4.78;;;;;;;0.71;63.84;101226.47;6612370;27;35324;-89
2021/12/21 13:47:13;;;;;;;9.57;5.25;;;;;;;0.57;64.37;101229.87;6619852;27;34819;-88
2021/12/21 13:50:26;;;;;;;8.98;5.20;;;;;;;0.55;64.70;101228.12;6609357;27;34734;-89
2021/12/21 13:53:28;;;;;;;7.53;5.18;;;;;;;0.53;64.74;101233.34;6611744;27;33941;-88
2021/12/21 13:56:32;;;;;;;10.15;5.57;;;;;;;0.39;64.76;101222.81;6610504;27;34866;-88
2021/12/21 13:59:36;;;;;;;11.05;5.65;;;;;;;0.40;65.25;101235.00;6606900;27;35007;-88
2021/12/21 14:02:49;;;;;;;8.82;5.78;;;;;;;0.33;65.26;101226.25;6607706;27;34308;-88
2021/12/21 14:06:13;;;;;;;7.03;4.60;;;;;;;0.43;64.64;101221.09;6611659;27;33864;-90
2021/12/21 14:09:20;;;;;;;8.90;5.60;;;;;;;0.37;64.77;101224.53;6610945;27;34913;-89
2021/12/21 14:12:26;;;;;;;9.30;4.85;;;;;;;0.35;64.98;101224.53;6610300;26;35317;-91
2021/12/21 14:19:19;;;;;;;7.37;5.40;;;;;;;0.33;64.97;101225.38;6609452;26;20057;-88
2021/12/21 14:22:22;;;;;;;9.70;5.18;;;;;;;0.30;65.18;101223.63;6608081;27;33756;-89
2021/12/21 14:25:39;;;;;;;10.43;5.47;;;;;;;0.31;65.06;101227.13;6604696;26;34033;-90
2021/12/21 14:28:48;;;;;;;8.10;5.43;;;;;;;0.18;65.55;101228.75;6609092;27;34129;-89
2021/12/21 14:32:01;;;;;;;11.80;5.55;;;;;;;0.13;65.83;101221.78;6607780;27;34032;-89
2021/12/21 14:35:11;;;;;;;9.07;5.47;;;;;;;-0.02;66.47;101225.16;6609131;27;33933;-89
2021/12/21 14:38:16;;;;;;;11.40;5.35;;;;;;;-0.11;67.12;101232.03;6612703;27;34399;-89
2021/12/21 14:41:25;;;;;;;9.43;5.68;;;;;;;-0.03;67.03;101232.97;6614346;27;34645;-89
2021/12/21 14:44:30;;;;;;;10.82;5.37;;;;;;;-0.17;67.34;101232.84;6608304;27;33744;-89
2021/12/21 14:47:35;;;;;;;11.70;5.57;;;;;;;-0.28;68.01;101238.84;6608010;26;34275;-89
2021/12/21 14:50:46;;;;;;;8.45;5.18;;;;;;;-0.30;68.59;101245.75;6607840;27;35241;-88
2021/12/21 14:54:06;;;;;;;11.43;5.47;;;;;;;-0.24;68.25;101241.47;6608783;27;33943;-87
2021/12/21 14:57:08;;;;;;;11.70;6.22;;;;;;;-0.36;68.72;101245.72;6615018;27;34558;-88
2021/12/21 15:00:18;;;;;;;13.98;6.25;;;;;;;-0.48;69.62;101243.87;6615349;27;35561;-91
2021/12/21 15:03:25;;;;;;;11.43;6.60;;;;;;;-0.65;70.45;101250.63;6612086;27;34620;-88
2021/12/21 15:06:28;;;;;;;10.48;6.28;;;;;;;-0.66;71.36;101252.34;6611854;27;33951;-89
2021/12/21 15:09:31;;;;;;;10.98;6.43;;;;;;;-0.61;71.47;101257.63;6610235;27;34831;-89
2021/12/21 15:12:34;;;;;;;11.63;6.78;;;;;;;-0.66;71.68;101260.16;6610692;27;33981;-89
2021/12/21 15:15:38;;;;;;;9.15;5.97;;;;;;;-0.75;72.29;101263.53;6610999;27;33980;-88
2021/12/21 15:18:41;;;;;;;11.38;6.35;;;;;;;-0.76;72.18;101267.00;6612128;27;34305;-88
2021/12/21 15:21:44;;;;;;;12.75;6.65;;;;;;;-0.90;72.52;101266.84;6614193;27;33688;-89
2021/12/21 15:24:46;;;;;;;12.32;6.93;;;;;;;-0.95;73.74;101276.34;6611586;27;34291;-89
2021/12/21 15:27:50;;;;;;;13.43;6.93;;;;;;;-1.04;73.82;101265.81;6614124;27;34752;-88
2021/12/21 15:30:52;;;;;;;16.45;7.12;;;;;;;-1.05;73.90;101271.88;6620075;27;34654;-88
2021/12/21 15:33:56;;;;;;;11.98;6.95;;;;;;;-1.15;74.84;101265.69;6614308;27;35122;-88
2021/12/21 15:36:59;;;;;;;10.63;6.78;;;;;;;-1.07;74.58;101268.38;6610878;27;33708;-88
2021/12/21 15:40:06;;;;;;;12.50;6.35;;;;;;;-1.00;74.42;101268.47;6609397;27;34670;-88
2021/12/21 15:43:12;;;;;;;11.52;6.70;;;;;;;-0.96;74.02;101270.25;6610396;27;35335;-89
2021/12/21 15:46:15;;;;;;;15.82;6.82;;;;;;;-1.01;74.30;101268.47;6610373;27;33940;-89
2021/12/21 15:49:18;;;;;;;13.45;6.53;;;;;;;-1.15;75.15;101269.12;6609205;27;34083;-89
2021/12/21 15:52:23;;;;;;;10.23;6.40;;;;;;;-1.06;75.01;101273.59;6608564;27;34812;-88
2021/12/21 15:55:26;;;;;;;11.73;6.53;;;;;;;-1.20;75.73;101270.84;6608481;27;34675;-88
2021/12/21 15:58:29;;;;;;;12.93;6.53;;;;;;;-1.07;75.08;101269.25;6610062;27;34245;-87
2021/12/21 16:01:32;;;;;;;10.02;6.28;;;;;;;-1.15;75.54;101261.31;6609021;27;34245;-88
2021/12/21 16:04:35;;;;;;;12.48;6.62;;;;;;;-1.08;75.15;101272.72;6609360;27;35171;-88
2021/12/21 16:07:37;;;;;;;9.85;5.97;;;;;;;-1.18;75.58;101269.12;6612262;27;34287;-88
2021/12/21 16:10:40;;;;;;;9.85;6.25;;;;;;;-1.04;75.20;101271.03;6609644;27;35266;-88
2021/12/21 16:13:43;;;;;;;12.60;6.43;;;;;;;-1.26;76.11;101268.16;6610343;27;34050;-89
2021/12/21 16:16:46;;;;;;;14.27;6.97;;;;;;;-1.27;76.08;101267.25;6610912;27;33483;-88
2021/12/21 16:19:48;;;;;;;13.35;7.18;;;;;;;-1.13;75.44;101259.63;6609438;27;34548;-89
